Time;durP1;ratioP1;P1;durP2;ratioP2;P2;SDS_P1;SDS_P2;PMS_P1;PMS_P2;Temp;Humidity;BMP_temperature;BMP_pressure;BME280_temperature;BME280_humidity;BME280_pressure;Samples;Min_cycle;Max_cycle;Signal;HPM_P1;HPM_P2
2022/06/07 00:00:08;;;;;;;;;;;14.80;99.90;;;;;;4899538;29;19927;-92
2022/06/07 00:03:27;;;;;;;;;;;15.00;99.90;;;;;;4882571;29;19942;-91
2022/06/07 00:28:49;;;;;;;;;;;14.40;99.90;;;;;;4884013;23;19926;-92
2022/06/07 00:31:22;;;;;;;;;;;14.40;99.90;;;;;;4919077;29;19927;-93
2022/06/07 00:34:00;;;;;;;;;;;14.50;99.90;;;;;;4920839;29;19926;-92
2022/06/07 00:36:48;;;;;;;;;;;14.50;99.90;;;;;;4902205;29;20109;-92
2022/06/07 00:39:56;;;;;;;;;;;14.90;99.90;;;;;;4924987;29;19927;-92
2022/06/07 00:42:52;;;;;;;;;;;14.70;99.90;;;;;;4919943;29;19937;-91
2022/06/07 00:45:32;;;;;;;;;;;14.60;99.90;;;;;;4939459;29;19926;-92
2022/06/07 00:51:36;;;;;;;;;;;12.70;99.90;;;;;;4907775;29;19927;-93
2022/06/07 00:54:28;;;;;;;;;;;14.20;99.90;;;;;;4901373;29;20271;-93
2022/06/07 00:57:44;;;;;;;;;;;14.30;99.90;;;;;;4900252;29;19927;-93
2022/06/07 01:00:44;;;;;;;;;;;13.80;99.90;;;;;;4891080;29;19930;-92
2022/06/07 01:03:29;;;;;;;;;;;14.30;99.90;;;;;;4901318;29;19927;-91
2022/06/07 01:12:33;;;;;;;;;;;14.00;99.90;;;;;;4848800;29;19928;-92
2022/06/07 01:15:27;;;;;;;;;;;13.80;99.90;;;;;;4857268;29;19933;-93
2022/06/07 01:18:12;;;;;;;;;;;14.10;99.90;;;;;;4830679;29;19928;-93
2022/06/07 01:21:08;;;;;;;;;;;13.50;99.90;;;;;;4829914;29;19928;-92
2022/06/07 01:23:42;;;;;;;;;;;13.80;99.90;;;;;;4829039;29;19952;-92
2022/06/07 01:26:25;;;;;;;;;;;13.30;99.90;;;;;;4825589;29;19929;-93
2022/06/07 01:29:20;;;;;;;;;;;14.90;99.90;;;;;;4831549;29;19929;-91
2022/06/07 01:32:10;;;;;;;;;;;13.60;99.90;;;;;;4875268;24;19923;-92
2022/06/07 01:34:48;;;;;;;;;;;13.60;99.90;;;;;;4880450;29;19951;-91
2022/06/07 01:37:37;;;;;;;;;;;13.80;99.90;;;;;;4880299;29;19928;-93
2022/06/07 01:42:58;;;;;;;;;;;13.20;99.90;;;;;;4866455;29;19934;-93
2022/06/07 01:45:29;;;;;;;;;;;13.30;99.90;;;;;;4850524;29;19939;-92
2022/06/07 01:48:03;;;;;;;;;;;11.80;99.90;;;;;;4849126;29;19928;-92
2022/06/07 01:50:51;;;;;;;;;;;13.50;99.90;;;;;;4926840;24;19931;-91
2022/06/07 01:53:26;;;;;;;;;;;13.10;99.90;;;;;;4935673;29;19953;-92
2022/06/07 01:56:08;;;;;;;;;;;13.10;99.90;;;;;;4890832;29;19927;-91
2022/06/07 01:58:47;;;;;;;;;;;12.90;99.90;;;;;;4904063;29;20382;-92
2022/06/07 02:01:46;;;;;;;;;;;13.10;99.90;;;;;;4906284;29;19926;-92
2022/06/07 02:04:24;;;;;;;;;;;12.90;99.90;;;;;;4904870;29;19927;-92
2022/06/07 02:07:01;;;;;;;;;;;13.90;99.90;;;;;;4903948;29;19927;-93
2022/06/07 02:09:51;;;;;;;;;;;13.20;99.90;;;;;;4878811;29;19927;-92
2022/06/07 02:12:35;;;;;;;;;;;12.70;99.90;;;;;;4906904;29;19933;-92
2022/06/07 02:15:22;;;;;;;;;;;11.30;99.90;;;;;;4919294;29;19927;-93
2022/06/07 02:18:05;;;;;;;;;;;12.70;99.90;;;;;;4886585;29;19927;-92
2022/06/07 02:21:04;;;;;;;;;;;13.10;99.90;;;;;;4903342;29;19928;-92
2022/06/07 02:24:09;;;;;;;;;;;13.40;99.90;;;;;;4945484;23;19935;-94
2022/06/07 02:27:03;;;;;;;;;;;12.60;99.90;;;;;;4898544;29;19933;-94
2022/06/07 02:29:56;;;;;;;;;;;12.60;99.90;;;;;;4903134;29;19927;-94
2022/06/07 02:32:52;;;;;;;;;;;12.50;99.90;;;;;;4896857;29;19935;-94
2022/06/07 02:39:07;;;;;;;;;;;12.40;99.90;;;;;;4937000;29;19921;-93
2022/06/07 02:41:48;;;;;;;;;;;12.50;99.90;;;;;;4997317;23;19938;-93
2022/06/07 02:44:40;;;;;;;;;;;12.40;99.90;;;;;;4945330;23;19937;-94
2022/06/07 02:47:19;;;;;;;;;;;12.40;99.90;;;;;;4922795;29;19927;-94
2022/06/07 02:50:32;;;;;;;;;;;12.60;99.90;;;;;;4934714;29;19918;-94
2022/06/07 02:53:25;;;;;;;;;;;12.40;99.90;;;;;;4898310;29;19934;-93
2022/06/07 03:42:07;;;;;;;;;;;11.60;99.90;;;;;;4926414;23;19939;-94
2022/06/07 03:44:52;;;;;;;;;;;11.60;99.90;;;;;;4903341;29;19927;-93
2022/06/07 03:47:52;;;;;;;;;;;11.70;99.90;;;;;;4918637;29;19911;-92
2022/06/07 03:50:32;;;;;;;;;;;11.50;99.90;;;;;;4902525;29;19934;-92
2022/06/07 03:53:59;;;;;;;;;;;11.60;99.90;;;;;;4905323;29;19929;-93
2022/06/07 03:56:32;;;;;;;;;;;11.40;99.90;;;;;;4904165;29;19927;-93
2022/06/07 03:59:15;;;;;;;;;;;11.50;99.90;;;;;;4919683;29;19933;-93
2022/06/07 04:02:02;;;;;;;;;;;10.20;99.90;;;;;;4946429;23;19930;-92
2022/06/07 04:04:46;;;;;;;;;;;11.40;99.90;;;;;;4936989;29;19927;-92
2022/06/07 04:15:03;;;;;;;;;;;12.40;99.90;;;;;;4924840;29;19934;-92
2022/06/07 04:17:40;;;;;;;;;;;11.50;99.90;;;;;;4924366;29;19915;-92
2022/06/07 04:20:38;;;;;;;;;;;11.30;99.90;;;;;;4890583;29;19928;-92
2022/06/07 04:23:21;;;;;;;;;;;11.30;99.90;;;;;;4903097;29;19938;-92
2022/06/07 04:33:26;;;;;;;;;;;11.30;99.90;;;;;;4558969;23;10000037;-91
2022/06/07 04:36:20;;;;;;;;;;;11.50;99.90;;;;;;4863249;29;20310;-93
2022/06/07 04:39:06;;;;;;;;;;;11.50;99.90;;;;;;4856433;29;19940;-93
2022/06/07 04:41:52;;;;;;;;;;;11.50;99.90;;;;;;4866769;23;19928;-93
2022/06/07 04:44:33;;;;;;;;;;;11.70;99.90;;;;;;4875268;29;19928;-93
2022/06/07 04:47:09;;;;;;;;;;;11.80;99.90;;;;;;4877549;29;19928;-93
2022/06/07 04:50:02;;;;;;;;;;;11.60;99.90;;;;;;4849384;29;19935;-92
2022/06/07 04:52:57;;;;;;;;;;;11.60;99.90;;;;;;4870544;29;19939;-92
2022/06/07 04:55:33;;;;;;;;;;;12.00;99.90;;;;;;4884301;24;19922;-92
2022/06/07 04:58:53;;;;;;;;;;;11.90;99.90;;;;;;4915894;29;19934;-92
2022/06/07 05:01:42;;;;;;;;;;;12.10;99.90;;;;;;4885141;29;19943;-93
2022/06/07 05:04:24;;;;;;;;;;;12.00;99.90;;;;;;4885851;29;20000;-91
2022/06/07 05:07:07;;;;;;;;;;;12.40;99.90;;;;;;4899791;29;19928;-92
2022/06/07 05:10:16;;;;;;;;;;;12.30;99.90;;;;;;4898398;29;19916;-91
2022/06/07 05:13:40;;;;;;;;;;;12.20;99.90;;;;;;4880369;29;19943;-93
2022/06/07 05:16:41;;;;;;;;;;;12.60;99.90;;;;;;4864898;29;19944;-93
2022/06/07 05:19:36;;;;;;;;;;;12.50;99.90;;;;;;4874860;29;19942;-92
2022/06/07 05:22:35;;;;;;;;;;;12.60;99.90;;;;;;4913788;23;19932;-92
2022/06/07 05:25:18;;;;;;;;;;;12.90;99.90;;;;;;4873530;29;19927;-92
2022/06/07 05:28:16;;;;;;;;;;;12.80;99.90;;;;;;4891819;29;19938;-92
2022/06/07 05:30:54;;;;;;;;;;;13.30;99.90;;;;;;4893144;29;19951;-92
2022/06/07 05:34:19;;;;;;;;;;;12.90;99.90;;;;;;5191295;23;19932;31
2022/06/07 05:37:20;;;;;;;;;;;12.90;99.90;;;;;;4864305;29;19959;-92
2022/06/07 05:40:58;;;;;;;;;;;12.90;99.90;;;;;;5070515;23;20391;-92
2022/06/07 05:44:07;;;;;;;;;;;13.10;99.90;;;;;;4932863;24;19931;-92
2022/06/07 05:47:14;;;;;;;;;;;13.30;99.90;;;;;;5057159;23;19935;-92
2022/06/07 05:57:55;;;;;;;;;;;13.60;99.90;;;;;;4945884;24;19928;-91
2022/06/07 06:00:36;;;;;;;;;;;13.60;99.90;;;;;;4899618;29;19927;-90
2022/06/07 06:12:58;;;;;;;;;;;13.80;99.90;;;;;;4892303;29;19931;-94
2022/06/07 06:15:34;;;;;;;;;;;14.00;99.90;;;;;;4890036;29;19916;-93
2022/06/07 06:18:05;;;;;;;;;;;14.10;99.90;;;;;;4885778;29;19942;-94
2022/06/07 06:20:44;;;;;;;;;;;14.20;99.90;;;;;;4874586;29;19935;-94
2022/06/07 06:23:20;;;;;;;;;;;14.30;99.90;;;;;;4859385;29;19926;-93
2022/06/07 06:26:08;;;;;;;;;;;14.90;99.90;;;;;;4878216;29;19938;-93
2022/06/07 06:29:08;;;;;;;;;;;14.90;99.90;;;;;;4896471;29;19932;-89
2022/06/07 06:31:40;;;;;;;;;;;14.60;99.90;;;;;;4892349;29;19928;-93
2022/06/07 06:34:43;;;;;;;;;;;14.60;99.90;;;;;;4883195;29;19938;-92
2022/06/07 06:37:20;;;;;;;;;;;14.50;99.90;;;;;;4884234;29;20306;-92
2022/06/07 06:39:55;;;;;;;;;;;14.70;99.90;;;;;;4881166;29;19928;-93
2022/06/07 06:42:27;;;;;;;;;;;14.80;99.90;;;;;;4880460;29;19934;-91
2022/06/07 06:45:26;;;;;;;;;;;14.90;99.90;;;;;;4865174;29;19928;-91
2022/06/07 06:48:14;;;;;;;;;;;14.90;99.90;;;;;;4855062;29;20326;-92
2022/06/07 06:50:51;;;;;;;;;;;16.80;99.90;;;;;;4899009;29;19922;-90
2022/06/07 06:53:48;;;;;;;;;;;15.20;99.90;;;;;;4906916;29;19928;-91
2022/06/07 06:56:31;;;;;;;;;;;15.10;99.90;;;;;;4894988;29;19927;-92
2022/06/07 06:59:14;;;;;;;;;;;15.70;99.90;;;;;;4860264;29;20332;-93
2022/06/07 07:01:55;;;;;;;;;;;16.30;99.90;;;;;;4896271;29;19927;-93
2022/06/07 07:04:37;;;;;;;;;;;15.60;99.90;;;;;;4898789;29;19936;-92
2022/06/07 07:07:10;;;;;;;;;;;15.40;99.90;;;;;;4895604;29;19931;-92
2022/06/07 07:10:09;;;;;;;;;;;15.20;99.90;;;;;;4886436;29;19938;-92
2022/06/07 07:12:44;;;;;;;;;;;15.60;99.90;;;;;;4879256;29;19935;-92
2022/06/07 07:15:21;;;;;;;;;;;15.70;99.90;;;;;;4899313;29;19932;-90
2022/06/07 07:18:09;;;;;;;;;;;15.70;99.90;;;;;;4862699;29;19927;-89
2022/06/07 07:20:52;;;;;;;;;;;16.40;99.90;;;;;;4880604;29;19934;-90
2022/06/07 07:23:23;;;;;;;;;;;15.60;99.90;;;;;;4884020;29;19935;-92
2022/06/07 07:26:00;;;;;;;;;;;15.90;99.90;;;;;;4882174;29;19931;-92
2022/06/07 07:28:58;;;;;;;;;;;16.50;99.90;;;;;;4847192;29;19931;-92
2022/06/07 07:31:33;;;;;;;;;;;16.50;99.90;;;;;;4912426;29;19938;-91
2022/06/07 07:40:51;;;;;;;;;;;16.20;99.90;;;;;;4877563;29;19928;-91
2022/06/07 07:47:30;;;;;;;;;;;16.30;99.90;;;;;;4881729;29;19927;-90
2022/06/07 07:50:12;;;;;;;;;;;16.60;99.90;;;;;;4880887;29;19928;-91
2022/06/07 07:52:57;;;;;;;;;;;16.80;99.90;;;;;;4858544;29;19935;-91
2022/06/07 07:59:14;;;;;;;;;;;16.80;99.90;;;;;;4865646;29;19927;-89
2022/06/07 08:01:46;;;;;;;;;;;16.40;99.90;;;;;;4875266;29;19935;-90
2022/06/07 08:04:20;;;;;;;;;;;16.80;99.90;;;;;;4864402;29;19938;-92
2022/06/07 08:07:02;;;;;;;;;;;16.90;99.90;;;;;;4861879;29;19928;-91
2022/06/07 08:09:44;;;;;;;;;;;17.30;99.90;;;;;;4850983;29;19936;-91
2022/06/07 08:12:42;;;;;;;;;;;17.10;99.90;;;;;;4876601;29;19943;-90
2022/06/07 08:15:16;;;;;;;;;;;17.20;99.90;;;;;;4880053;29;19932;-91
2022/06/07 08:17:54;;;;;;;;;;;17.20;99.90;;;;;;4858672;29;19938;-90
2022/06/07 08:20:39;;;;;;;;;;;17.30;99.90;;;;;;4859718;29;19943;-90
2022/06/07 08:23:48;;;;;;;;;;;17.40;99.90;;;;;;4863533;29;19932;-91
2022/06/07 08:26:27;;;;;;;;;;;17.80;99.90;;;;;;4879862;29;19928;-90
2022/06/07 08:29:04;;;;;;;;;;;17.60;99.90;;;;;;4859296;29;20509;-90
2022/06/07 08:31:56;;;;;;;;;;;17.80;99.90;;;;;;4878763;29;19928;-90
2022/06/07 08:41:02;;;;;;;;;;;17.80;99.90;;;;;;4898699;29;19932;-90
2022/06/07 08:44:07;;;;;;;;;;;18.10;99.90;;;;;;4863432;29;19928;-89
2022/06/07 08:46:38;;;;;;;;;;;18.40;99.40;;;;;;4866357;29;19935;-90
2022/06/07 08:49:25;;;;;;;;;;;18.10;99.10;;;;;;4843530;29;19934;-91
2022/06/07 08:52:22;;;;;;;;;;;17.40;98.90;;;;;;4879755;29;19928;-91
2022/06/07 08:55:37;;;;;;;;;;;18.30;99.10;;;;;;4901040;29;19927;-91
2022/06/07 08:58:30;;;;;;;;;;;18.40;98.60;;;;;;4869753;29;19928;-90
2022/06/07 09:01:15;;;;;;;;;;;18.40;98.70;;;;;;4864292;29;19935;-91
2022/06/07 09:04:17;;;;;;;;;;;18.60;97.60;;;;;;4867762;29;19924;-91
2022/06/07 09:06:56;;;;;;;;;;;18.70;98.30;;;;;;4543116;29;10000543;-91
2022/06/07 09:13:23;;;;;;;;;;;18.90;97.20;;;;;;4956248;29;19927;-90
2022/06/07 09:19:25;;;;;;;;;;;18.10;97.40;;;;;;4936845;29;19927;-90
2022/06/07 09:22:38;;;;;;;;;;;19.40;96.30;;;;;;4919786;29;19934;-90
2022/06/07 09:25:34;;;;;;;;;;;19.60;95.90;;;;;;4918738;29;20157;-90
2022/06/07 09:28:30;;;;;;;;;;;19.70;96.30;;;;;;4907174;29;19922;-91
2022/06/07 09:31:21;;;;;;;;;;;19.80;95.10;;;;;;4897090;29;19934;-89
2022/06/07 09:34:37;;;;;;;;;;;19.90;95.20;;;;;;4925067;29;19924;-91
2022/06/07 09:37:21;;;;;;;;;;;19.60;95.70;;;;;;4899753;29;19928;-91
2022/06/07 09:40:00;;;;;;;;;;;19.60;95.80;;;;;;4869288;29;19916;-90
2022/06/07 09:42:58;;;;;;;;;;;18.50;95.80;;;;;;4882767;29;19916;-90
2022/06/07 09:45:45;;;;;;;;;;;19.80;95.80;;;;;;4902529;29;19933;-91
2022/06/07 09:49:41;;;;;;;;;;;19.80;95.30;;;;;;5139413;23;19935;-91
2022/06/07 09:52:51;;;;;;;;;;;20.10;95.40;;;;;;4907696;29;19931;-89
2022/06/07 09:55:57;;;;;;;;;;;20.30;95.60;;;;;;5019694;23;19927;31
2022/06/07 09:59:04;;;;;;;;;;;20.20;95.30;;;;;;4863408;29;19999;-90
2022/06/07 10:03:04;;;;;;;;;;;20.10;96.00;;;;;;4879804;29;19935;-90
2022/06/07 10:06:10;;;;;;;;;;;20.60;95.20;;;;;;4879657;29;19932;-90
2022/06/07 10:10:03;;;;;;;;;;;20.70;95.40;;;;;;4885686;29;19919;-90
2022/06/07 10:13:30;;;;;;;;;;;20.90;95.00;;;;;;4884139;29;19920;-90
2022/06/07 10:16:30;;;;;;;;;;;21.10;94.20;;;;;;4851694;29;19932;-90
2022/06/07 10:19:50;;;;;;;;;;;21.50;94.80;;;;;;4870480;29;19922;-88
2022/06/07 10:22:43;;;;;;;;;;;21.70;94.40;;;;;;4877860;29;20255;-89
2022/06/07 10:26:09;;;;;;;;;;;22.00;94.50;;;;;;4873683;29;19928;-89
2022/06/07 10:29:41;;;;;;;;;;;22.10;93.60;;;;;;4868484;29;19946;-90
2022/06/07 10:32:39;;;;;;;;;;;22.20;94.00;;;;;;4887858;29;19932;-90
2022/06/07 10:35:15;;;;;;;;;;;22.20;93.40;;;;;;4895030;29;19916;-89
2022/06/07 10:38:15;;;;;;;;;;;22.30;94.30;;;;;;4901572;29;19938;-89
2022/06/07 10:41:16;;;;;;;;;;;22.30;94.20;;;;;;4898613;29;19923;-91
2022/06/07 10:44:39;;;;;;;;;;;22.30;94.20;;;;;;4888158;29;20274;-89
2022/06/07 10:47:16;;;;;;;;;;;22.30;94.40;;;;;;4888298;29;19932;-90
2022/06/07 10:50:21;;;;;;;;;;;22.30;93.50;;;;;;4913599;29;19935;-91
2022/06/07 10:53:16;;;;;;;;;;;22.60;93.80;;;;;;4858613;29;19934;-90
2022/06/07 10:56:41;;;;;;;;;;;22.50;94.30;;;;;;4889529;29;19934;-89
2022/06/07 10:59:54;;;;;;;;;;;22.40;94.20;;;;;;4874565;29;19936;-91
2022/06/07 11:02:44;;;;;;;;;;;22.30;94.60;;;;;;4885082;29;19918;-91
2022/06/07 11:09:51;;;;;;;;;;;22.20;94.50;;;;;;4942508;29;19923;-89
2022/06/07 11:20:50;;;;;;;;;;;22.20;95.30;;;;;;4920578;29;19938;-90
2022/06/07 11:27:15;;;;;;;;;;;22.00;95.90;;;;;;4928099;29;19916;-90
2022/06/07 11:30:18;;;;;;;;;;;21.70;96.20;;;;;;4902503;29;19911;-90
2022/06/07 11:33:43;;;;;;;;;;;21.80;96.40;;;;;;4874793;29;19924;-90
2022/06/07 11:36:28;;;;;;;;;;;21.40;96.60;;;;;;4888114;29;19927;-91
2022/06/07 11:40:07;;;;;;;;;;;21.20;96.70;;;;;;4896967;29;19930;-90
2022/06/07 11:43:04;;;;;;;;;;;21.10;97.00;;;;;;4934303;23;19929;-90
2022/06/07 11:45:53;;;;;;;;;;;20.70;97.20;;;;;;4908744;29;19927;-89
2022/06/07 11:48:35;;;;;;;;;;;20.60;97.70;;;;;;4900144;24;19935;-88
2022/06/07 11:51:17;;;;;;;;;;;20.40;99.70;;;;;;4892661;29;19932;-89
2022/06/07 11:58:03;;;;;;;;;;;21.80;99.90;;;;;;4864397;29;19916;-89
2022/06/07 12:01:19;;;;;;;;;;;20.00;99.90;;;;;;4863173;29;20398;-89
2022/06/07 12:04:30;;;;;;;;;;;19.90;99.90;;;;;;4880672;29;19915;-89
2022/06/07 12:07:22;;;;;;;;;;;19.90;99.90;;;;;;4872382;29;19932;-90
2022/06/07 12:10:17;;;;;;;;;;;19.80;99.90;;;;;;4876362;29;19934;-90
2022/06/07 12:13:14;;;;;;;;;;;19.90;99.90;;;;;;4889011;29;19936;-89
2022/06/07 12:15:52;;;;;;;;;;;19.90;99.90;;;;;;4883217;29;19932;-90
2022/06/07 12:18:29;;;;;;;;;;;21.80;99.90;;;;;;4859806;29;19934;-90
2022/06/07 12:21:09;;;;;;;;;;;20.40;99.80;;;;;;4881031;29;19947;-91
2022/06/07 12:24:23;;;;;;;;;;;20.30;99.40;;;;;;4878105;29;19928;-90
2022/06/07 12:30:55;;;;;;;;;;;20.80;98.80;;;;;;4884803;29;19928;-90
2022/06/07 12:34:17;;;;;;;;;;;20.90;98.80;;;;;;4856172;29;19935;-89
2022/06/07 12:37:30;;;;;;;;;;;21.00;99.50;;;;;;4859843;29;19935;-90
2022/06/07 12:40:45;;;;;;;;;;;20.40;99.90;;;;;;4883871;29;19959;-90
2022/06/07 12:43:20;;;;;;;;;;;20.30;99.90;;;;;;4874688;29;19932;-89
2022/06/07 12:46:41;;;;;;;;;;;20.10;99.90;;;;;;5099632;23;20726;-92
2022/06/07 12:49:57;;;;;;;;;;;19.90;99.90;;;;;;4897609;29;19925;-89
2022/06/07 12:52:40;;;;;;;;;;;18.90;99.90;;;;;;4891827;29;19911;-89
2022/06/07 13:03:33;;;;;;;;;;;19.60;99.90;;;;;;4988973;23;19929;-92
2022/06/07 13:10:20;;;;;;;;;;;19.70;99.90;;;;;;4950091;23;19938;-91
2022/06/07 13:13:35;;;;;;;;;;;19.80;99.90;;;;;;4888409;29;19934;-90
2022/06/07 13:16:32;;;;;;;;;;;19.70;99.90;;;;;;4893300;29;19928;-90
2022/06/07 13:20:08;;;;;;;;;;;19.70;99.90;;;;;;4944931;23;19934;-91
2022/06/07 13:28:08;;;;;;;;;;;19.90;99.90;;;;;;4922936;29;19919;-87
2022/06/07 13:31:40;;;;;;;;;;;19.80;99.90;;;;;;4927901;29;20012;-91
2022/06/07 13:34:37;;;;;;;;;;;19.80;99.90;;;;;;4957933;29;19931;-87
2022/06/07 13:37:28;;;;;;;;;;;19.80;99.90;;;;;;5221329;23;19921;-87
2022/06/07 13:40:17;;;;;;;;;;;19.70;99.90;;;;;;4900264;29;20366;-88
2022/06/07 13:47:36;;;;;;;;;;;19.70;99.90;;;;;;4894151;29;19928;-89
2022/06/07 13:53:30;;;;;;;;;;;19.70;99.90;;;;;;4889561;29;20286;-88
